Time;durP1;ratioP1;P1;durP2;ratioP2;P2;SDS_P1;SDS_P2;PMS_P1;PMS_P2;Temp;Humidity;BMP_temperature;BMP_pressure;BME280_temperature;BME280_humidity;BME280_pressure;Samples;Min_cycle;Max_cycle;Signal;HPM_P1;HPM_P2
2021/05/25 00:01:36;;;;;;;4.08;1.02;;;;;;;9.44;78.76;100936.41;1713389;82;21075;-77
2021/05/25 00:04:03;;;;;;;2.37;0.90;;;;;;;9.39;78.87;100937.67;1711659;83;21069;-77
2021/05/25 00:06:29;;;;;;;2.08;1.05;;;;;;;9.37;78.90;100940.88;1721940;83;21017;-76
2021/05/25 00:08:56;;;;;;;1.10;1.00;;;;;;;9.32;79.00;100935.89;1713162;82;21650;-77
2021/05/25 00:11:23;;;;;;;1.10;0.90;;;;;;;9.31;79.05;100934.68;1694243;84;21700;-76
2021/05/25 00:13:50;;;;;;;1.55;1.00;;;;;;;9.30;79.17;100932.52;1696152;83;21012;-76
2021/05/25 00:16:17;;;;;;;1.17;1.00;;;;;;;9.30;79.27;100927.72;1709082;83;21035;-76
2021/05/25 00:18:43;;;;;;;1.02;0.80;;;;;;;9.29;79.39;100926.88;1698228;83;21031;-76
2021/05/25 00:21:09;;;;;;;3.60;1.00;;;;;;;9.26;79.39;100928.84;1730578;82;20988;-76
2021/05/25 00:23:36;;;;;;;2.72;0.98;;;;;;;9.23;79.42;100923.31;1737711;82;21769;-77
2021/05/25 00:26:04;;;;;;;2.35;0.90;;;;;;;9.18;79.41;100920.98;1732882;82;21040;-77
2021/05/25 00:28:30;;;;;;;1.85;1.10;;;;;;;9.14;79.47;100919.48;1735284;81;22367;-74
2021/05/25 00:30:57;;;;;;;2.22;1.10;;;;;;;9.13;79.52;100916.95;1723049;82;21137;-75
2021/05/25 00:33:23;;;;;;;1.55;1.00;;;;;;;9.10;79.59;100918.47;1708288;83;21001;-75
2021/05/25 00:35:53;;;;;;;1.92;1.07;;;;;;;9.07;79.64;100918.64;1702440;83;22203;-74
2021/05/25 00:38:19;;;;;;;1.52;1.20;;;;;;;9.04;79.71;100917.06;1733235;82;21000;-75
2021/05/25 00:40:45;;;;;;;6.75;1.15;;;;;;;9.03;79.82;100928.55;1717472;82;21037;-75
2021/05/25 00:43:12;;;;;;;5.67;1.20;;;;;;;9.02;79.93;100930.81;1718701;82;21646;-76
2021/05/25 00:45:38;;;;;;;1.57;0.90;;;;;;;8.99;79.98;100928.39;1740180;82;20997;-75
2021/05/25 00:48:06;;;;;;;2.05;1.10;;;;;;;9.02;80.16;100929.50;1726454;81;21787;-75
2021/05/25 00:50:33;;;;;;;1.65;1.20;;;;;;;9.03;80.23;100931.19;1698648;83;21095;-76
2021/05/25 00:53:02;;;;;;;2.85;1.10;;;;;;;9.07;80.38;100931.38;1694389;83;20946;-75
2021/05/25 00:55:31;;;;;;;1.82;1.20;;;;;;;9.10;80.40;100925.91;1719057;83;21514;-75
2021/05/25 00:58:00;;;;;;;3.85;1.10;;;;;;;9.13;80.52;100924.38;1769377;80;21010;-75
2021/05/25 01:00:31;;;;;;;2.80;1.20;;;;;;;9.18;80.67;100926.73;1774714;80;22500;-75
2021/05/25 01:02:57;;;;;;;2.87;1.07;;;;;;;9.21;80.71;100930.48;1757412;80;20975;-75
2021/05/25 01:05:24;;;;;;;2.00;1.40;;;;;;;9.24;80.76;100939.97;1755640;80;21089;-75
2021/05/25 01:07:51;;;;;;;3.30;1.10;;;;;;;9.26;80.73;100935.44;1779123;80;20986;-75
2021/05/25 01:10:28;;;;;;;1.80;1.20;;;;;;;9.26;80.73;100931.48;1781747;79;20954;-75
2021/05/25 01:13:01;;;;;;;3.02;1.20;;;;;;;9.27;80.79;100928.77;1755853;80;21807;-76
2021/05/25 01:15:18;;;;;;;1.85;1.10;;;;;;;9.28;80.78;100929.62;1778136;80;21077;-75
2021/05/25 01:17:45;;;;;;;2.75;1.05;;;;;;;9.27;80.72;100926.61;1771362;80;21026;-75
2021/05/25 01:20:14;;;;;;;2.98;1.10;;;;;;;9.25;80.71;100927.16;1776029;79;21065;-75
2021/05/25 01:22:41;;;;;;;1.42;1.00;;;;;;;9.26;80.74;100936.28;1771557;80;20997;-75
2021/05/25 01:25:15;;;;;;;1.47;1.00;;;;;;;9.22;80.67;100936.59;1775161;80;21756;-75
2021/05/25 01:27:42;;;;;;;2.92;1.10;;;;;;;9.17;80.61;100943.49;1762278;80;21485;-74
2021/05/25 01:30:10;;;;;;;1.20;1.07;;;;;;;9.13;80.60;100940.19;1777764;79;21009;-75
2021/05/25 01:32:37;;;;;;;2.62;1.40;;;;;;;9.07;80.53;100949.83;1778931;80;21022;-75
2021/05/25 01:35:05;;;;;;;2.20;1.27;;;;;;;9.04;80.49;100951.80;1767909;80;21039;-75
2021/05/25 01:37:32;;;;;;;4.05;1.20;;;;;;;8.98;80.48;100961.42;1755876;81;22421;-74
2021/05/25 01:39:58;;;;;;;1.20;1.10;;;;;;;8.96;80.51;100956.70;1760793;80;20983;-74
2021/05/25 01:42:32;;;;;;;1.82;1.25;;;;;;;8.94;80.52;100956.80;1758584;80;21038;-74
2021/05/25 01:45:00;;;;;;;2.00;1.20;;;;;;;8.90;80.48;100954.00;1755642;80;21530;-75
2021/05/25 01:47:27;;;;;;;3.77;1.12;;;;;;;8.86;80.51;100960.38;1755825;81;21478;-74
2021/05/25 01:50:10;;;;;;;3.27;1.22;;;;;;;8.84;80.54;100966.23;1743396;80;22638;-74
2021/05/25 01:52:22;;;;;;;2.20;1.20;;;;;;;8.83;80.56;100972.44;1743299;81;21011;-74
2021/05/25 01:54:48;;;;;;;7.50;1.40;;;;;;;8.82;80.59;100976.86;1754000;81;21461;-74
2021/05/25 01:57:14;;;;;;;2.65;1.30;;;;;;;8.79;80.59;100982.80;1739260;81;21041;-75
2021/05/25 01:59:41;;;;;;;3.83;1.12;;;;;;;8.76;80.57;100984.29;1732403;81;21029;-74
2021/05/25 02:02:07;;;;;;;1.47;1.10;;;;;;;8.72;80.62;100983.64;1750902;81;21751;-74
2021/05/25 02:04:34;;;;;;;3.55;1.22;;;;;;;8.69;80.67;100986.95;1753344;81;21066;-74
2021/05/25 02:07:01;;;;;;;4.55;1.10;;;;;;;8.67;80.73;100984.86;1745716;81;21619;-75
2021/05/25 02:09:27;;;;;;;2.00;1.20;;;;;;;8.65;80.76;100982.80;1746064;81;21046;-75
2021/05/25 02:11:54;;;;;;;5.75;1.10;;;;;;;8.64;80.78;100990.33;1725619;81;21070;-75
2021/05/25 02:14:21;;;;;;;3.25;1.30;;;;;;;8.62;80.78;100985.63;1736478;81;21779;-75
2021/05/25 02:16:49;;;;;;;5.10;1.10;;;;;;;8.61;80.82;100976.89;1726518;81;21473;-74
2021/05/25 02:19:16;;;;;;;2.05;1.15;;;;;;;8.60;80.80;100977.83;1736178;81;21026;-73
2021/05/25 02:21:42;;;;;;;2.08;1.20;;;;;;;8.58;80.91;100971.31;1738218;81;20994;-75
2021/05/25 02:24:08;;;;;;;3.25;1.35;;;;;;;8.58;81.00;100969.16;1724317;81;20991;-75
2021/05/25 02:26:35;;;;;;;2.95;1.20;;;;;;;8.57;81.06;100977.99;1743651;81;21774;-75
2021/05/25 02:29:02;;;;;;;3.17;1.20;;;;;;;8.55;81.10;100979.41;1752738;81;21109;-75
2021/05/25 02:31:29;;;;;;;3.05;1.30;;;;;;;8.56;81.12;100980.25;1729919;81;21519;-75
2021/05/25 02:33:55;;;;;;;2.55;1.17;;;;;;;8.57;81.18;100977.99;1723616;81;21038;-75
2021/05/25 02:36:22;;;;;;;2.15;1.30;;;;;;;8.57;81.16;100980.16;1738852;81;20974;-74
2021/05/25 02:38:49;;;;;;;3.30;1.10;;;;;;;8.58;81.21;100985.80;1731523;81;22288;-75
2021/05/25 02:41:16;;;;;;;2.15;1.35;;;;;;;8.60;81.29;100993.16;1730413;81;21080;-75
2021/05/25 02:43:43;;;;;;;4.37;1.00;;;;;;;8.61;81.34;100994.00;1725957;81;21045;-74
2021/05/25 02:46:10;;;;;;;1.82;1.10;;;;;;;8.65;81.39;100997.28;1723707;81;21034;-75
2021/05/25 02:48:37;;;;;;;1.98;1.30;;;;;;;8.66;81.45;100991.91;1724145;81;21520;-75
2021/05/25 02:51:04;;;;;;;4.20;1.35;;;;;;;8.66;81.54;100991.91;1723586;81;22193;-76
2021/05/25 02:53:31;;;;;;;2.55;1.30;;;;;;;8.73;81.67;100997.19;1748004;81;21477;-76
2021/05/25 02:55:57;;;;;;;2.50;1.32;;;;;;;8.81;81.74;101007.25;1728372;81;21460;-75
2021/05/25 02:58:24;;;;;;;2.87;1.20;;;;;;;8.88;81.84;101010.73;1740940;82;21065;-75
2021/05/25 03:00:50;;;;;;;2.42;1.10;;;;;;;8.97;81.87;101003.17;1736701;82;21096;-75
2021/05/25 03:03:17;;;;;;;3.37;1.35;;;;;;;9.02;81.88;101004.59;1742779;82;22361;-75
2021/05/25 03:05:46;;;;;;;2.85;1.30;;;;;;;9.10;81.99;101008.07;1722583;82;21105;-75
2021/05/25 03:08:14;;;;;;;3.58;1.00;;;;;;;9.16;82.05;101008.50;1722059;83;21530;-76
2021/05/25 03:10:43;;;;;;;1.80;1.05;;;;;;;9.26;82.10;101007.92;1728517;82;21069;-75
2021/05/25 03:13:10;;;;;;;2.75;1.25;;;;;;;9.33;82.13;101023.73;1722092;82;20994;-75
2021/05/25 03:15:40;;;;;;;4.37;1.22;;;;;;;9.39;82.21;101016.28;1724583;82;21738;-75
2021/05/25 03:18:07;;;;;;;3.87;1.27;;;;;;;9.45;82.28;101014.55;1750438;82;21509;-76
2021/05/25 03:20:34;;;;;;;3.98;1.50;;;;;;;9.54;82.28;101013.12;1734900;82;21037;-75
2021/05/25 03:23:03;;;;;;;1.90;1.20;;;;;;;9.61;82.30;101008.30;1733175;82;21109;-77
2021/05/25 03:25:30;;;;;;;3.15;1.20;;;;;;;9.69;82.32;101011.28;1740911;82;20966;-76
2021/05/25 03:27:57;;;;;;;2.02;1.30;;;;;;;9.74;82.31;101008.70;1725934;82;22122;-75
2021/05/25 03:30:25;;;;;;;1.95;1.30;;;;;;;9.83;82.32;101011.69;1724146;82;21098;-81
2021/05/25 03:32:52;;;;;;;4.70;1.20;;;;;;;9.92;82.33;101017.67;1743826;80;21103;-73
2021/05/25 03:35:21;;;;;;;3.35;1.42;;;;;;;10.01;82.30;101016.59;1727222;82;21014;-73
2021/05/25 03:37:47;;;;;;;3.42;1.20;;;;;;;10.10;82.30;101012.48;1742986;81;21039;-83
2021/05/25 03:40:15;;;;;;;3.12;1.27;;;;;;;10.21;82.24;101010.44;1735983;82;21797;-76
2021/05/25 03:42:50;;;;;;;3.20;1.30;;;;;;;10.32;82.17;101008.78;1751909;82;20982;-77
2021/05/25 03:45:18;;;;;;;1.82;1.40;;;;;;;10.44;82.13;101012.89;1723600;82;21698;-75
2021/05/25 03:47:45;;;;;;;3.45;1.32;;;;;;;10.52;81.98;101007.45;1735506;82;21070;-75
2021/05/25 03:50:13;;;;;;;2.98;1.30;;;;;;;10.62;81.94;101006.34;1723041;82;21045;-75
2021/05/25 03:52:46;;;;;;;4.28;1.50;;;;;;;10.69;81.81;100999.66;1722053;83;21770;-75
2021/05/25 04:00:47;;;;;;;3.00;1.40;;;;;;;10.95;81.64;101004.91;1772039;80;20983;-73
2021/05/25 04:03:14;;;;;;;5.85;1.62;;;;;;;11.04;81.50;100995.01;1786225;80;21066;-73
2021/05/25 04:05:40;;;;;;;2.80;1.30;;;;;;;11.15;81.35;100993.76;1784048;80;21846;-74
2021/05/25 04:08:09;;;;;;;2.08;1.40;;;;;;;11.28;81.23;100998.99;1765214;80;21057;-75
2021/05/25 04:10:36;;;;;;;2.75;1.35;;;;;;;11.38;81.04;101004.83;1758305;79;21030;-76
2021/05/25 04:13:03;;;;;;;1.65;1.32;;;;;;;11.47;80.87;101000.19;1783534;80;21061;-75
2021/05/25 04:15:29;;;;;;;2.47;1.40;;;;;;;11.56;80.68;100997.83;1785959;80;21026;-76
2021/05/25 04:17:57;;;;;;;2.80;1.57;;;;;;;11.67;80.50;101000.52;1763775;80;22628;-75
2021/05/25 04:20:24;;;;;;;2.70;1.30;;;;;;;11.77;80.32;101001.53;1773197;80;21053;-75
2021/05/25 04:22:50;;;;;;;2.40;1.35;;;;;;;11.86;80.20;101002.20;1771233;80;21014;-75
2021/05/25 04:25:16;;;;;;;2.22;1.20;;;;;;;11.99;79.91;100999.50;1764638;80;21049;-74
2021/05/25 04:27:43;;;;;;;2.02;1.55;;;;;;;12.11;79.60;100999.05;1767835;80;21041;-74
2021/05/25 04:30:13;;;;;;;3.52;1.12;;;;;;;12.20;79.10;100997.86;1786151;80;21772;-74
2021/05/25 04:32:40;;;;;;;3.05;1.20;;;;;;;12.30;78.56;100998.01;1783281;80;20982;-75
2021/05/25 04:35:07;;;;;;;2.30;1.07;;;;;;;12.41;78.18;101000.67;1786213;80;21017;-75
2021/05/25 04:37:34;;;;;;;1.70;0.90;;;;;;;12.50;77.48;100994.66;1774915;79;21564;-76
2021/05/25 04:40:01;;;;;;;1.50;0.80;;;;;;;12.58;76.90;100990.94;1783446;79;21485;-74
2021/05/25 04:42:28;;;;;;;2.62;1.00;;;;;;;12.67;75.97;100989.86;1766804;79;22302;-77
2021/05/25 04:44:55;;;;;;;2.45;0.95;;;;;;;12.77;75.38;100998.30;1753949;81;21037;-75
2021/05/25 04:47:22;;;;;;;2.65;1.02;;;;;;;12.84;74.42;100998.18;1755669;80;20978;-75
2021/05/25 04:49:48;;;;;;;2.00;1.00;;;;;;;12.94;73.94;101001.43;1755199;80;20989;-74
2021/05/25 04:52:14;;;;;;;1.80;0.90;;;;;;;13.02;73.34;101002.97;1721701;82;21576;-75
2021/05/25 04:54:42;;;;;;;4.05;0.90;;;;;;;13.10;73.20;101000.06;1718899;83;21776;-75
2021/05/25 04:57:09;;;;;;;1.42;0.88;;;;;;;13.21;73.05;101001.05;1709220;82;21054;-74
2021/05/25 04:59:36;;;;;;;2.02;0.82;;;;;;;13.28;72.92;100998.27;1698782;83;21026;-74
2021/05/25 05:02:03;;;;;;;2.40;0.98;;;;;;;13.36;73.01;101001.15;1713691;82;21094;-74
2021/05/25 05:04:30;;;;;;;2.75;1.02;;;;;;;13.43;72.28;101006.33;1694323;84;21531;-74
2021/05/25 05:06:59;;;;;;;2.90;1.00;;;;;;;13.52;72.05;101004.73;1694180;84;21008;-74
2021/05/25 05:09:26;;;;;;;4.87;1.10;;;;;;;13.59;71.59;101001.42;1699059;81;21003;-75
2021/05/25 05:11:53;;;;;;;4.90;0.90;;;;;;;13.67;71.38;101002.97;1725852;81;20993;-75
2021/05/25 05:14:19;;;;;;;1.60;1.10;;;;;;;13.78;71.04;101003.41;1723135;83;21488;-75
2021/05/25 05:16:46;;;;;;;2.87;0.82;;;;;;;13.87;70.77;101004.46;1696562;83;21058;-75
2021/05/25 05:19:12;;;;;;;1.20;0.70;;;;;;;13.96;70.59;101004.54;1728967;81;21839;-75
2021/05/25 05:21:39;;;;;;;4.62;0.78;;;;;;;14.03;69.40;101005.72;1694655;83;21003;-74
2021/05/25 05:24:07;;;;;;;3.40;1.00;;;;;;;14.05;68.18;101006.91;1722157;82;21074;-73
2021/05/25 05:26:34;;;;;;;3.92;1.10;;;;;;;14.10;68.14;101003.40;1713946;83;21058;-75
2021/05/25 05:29:00;;;;;;;2.52;1.00;;;;;;;14.16;68.03;101004.19;1708211;83;21003;-75
2021/05/25 05:31:27;;;;;;;2.70;1.00;;;;;;;14.21;67.94;101008.64;1714298;82;21694;-75
2021/05/25 05:33:53;;;;;;;1.27;0.70;;;;;;;14.25;67.28;101005.23;1725396;82;21074;-74
2021/05/25 05:36:19;;;;;;;2.35;1.00;;;;;;;14.30;66.96;101007.02;1688634;83;20983;-73
2021/05/25 05:38:46;;;;;;;1.87;0.90;;;;;;;14.35;66.84;101005.30;1699194;83;21027;-73
2021/05/25 05:41:14;;;;;;;2.15;0.80;;;;;;;14.41;66.69;101012.27;1705607;83;21089;-73
2021/05/25 05:43:41;;;;;;;1.77;1.22;;;;;;;14.49;66.79;101007.17;1721154;83;21934;-73
2021/05/25 05:46:07;;;;;;;4.15;1.10;;;;;;;14.56;66.57;101004.32;1715023;82;21536;-73
2021/05/25 05:48:34;;;;;;;1.67;1.00;;;;;;;14.63;66.45;101004.64;1695564;82;21082;-73
2021/05/25 05:51:01;;;;;;;1.55;0.80;;;;;;;14.69;65.54;101004.13;1718157;82;21129;-74
2021/05/25 05:53:27;;;;;;;1.75;0.90;;;;;;;14.72;65.15;100994.54;1694415;84;21078;-73
2021/05/25 05:55:53;;;;;;;1.75;1.00;;;;;;;14.78;65.23;101001.16;1713275;82;21749;-74
2021/05/25 05:58:20;;;;;;;2.25;1.10;;;;;;;14.85;65.50;100995.63;1721639;83;20980;-74
2021/05/25 06:00:46;;;;;;;5.40;1.22;;;;;;;14.98;65.93;101002.91;1777756;80;21054;-74
2021/05/25 06:03:13;;;;;;;5.40;1.30;;;;;;;15.10;65.70;100988.52;1757178;80;20994;-75
2021/05/25 06:05:39;;;;;;;1.87;1.05;;;;;;;15.21;65.41;100986.72;1756285;80;21041;-73
2021/05/25 06:08:09;;;;;;;4.62;1.22;;;;;;;15.32;65.27;100986.59;1781551;80;21731;-73
2021/05/25 06:10:39;;;;;;;3.02;1.00;;;;;;;15.40;64.38;100981.44;1786266;80;21049;-73
2021/05/25 06:13:06;;;;;;;1.67;0.88;;;;;;;15.48;63.63;100980.25;1769539;80;21022;-73
2021/05/25 06:15:35;;;;;;;2.02;0.90;;;;;;;15.51;62.39;100968.48;1760522;80;21089;-74
2021/05/25 06:18:03;;;;;;;1.95;0.90;;;;;;;15.51;62.36;100965.33;1786302;80;20954;-74
2021/05/25 06:20:30;;;;;;;2.55;1.05;;;;;;;15.58;62.75;100965.13;1777755;80;22463;-73
2021/05/25 06:22:56;;;;;;;2.70;1.15;;;;;;;15.68;62.70;100962.00;1755256;80;21061;-74
2021/05/25 06:25:23;;;;;;;3.80;1.02;;;;;;;15.79;62.73;100957.02;1759152;80;20950;-73
2021/05/25 06:27:49;;;;;;;3.33;0.90;;;;;;;15.92;62.87;100954.92;1778402;80;20974;-72
2021/05/25 06:30:17;;;;;;;2.77;1.10;;;;;;;16.07;63.02;100951.31;1723375;81;21567;-70
2021/05/25 06:32:43;;;;;;;1.35;0.88;;;;;;;16.22;62.80;100942.39;1762635;80;21738;-72
2021/05/25 06:35:10;;;;;;;3.42;1.10;;;;;;;16.36;62.54;100940.58;1727524;81;21009;-73
2021/05/25 06:37:37;;;;;;;4.30;1.10;;;;;;;16.46;61.31;100944.55;1765862;80;21015;-71
2021/05/25 06:40:06;;;;;;;1.42;0.93;;;;;;;16.47;61.09;100939.06;1779404;80;21517;-73
2021/05/25 06:42:32;;;;;;;1.75;0.93;;;;;;;16.55;61.46;100938.33;1769747;80;21500;-74
2021/05/25 06:44:59;;;;;;;2.08;0.90;;;;;;;16.60;61.30;100942.75;1772615;80;21745;-73
2021/05/25 06:47:25;;;;;;;2.00;1.02;;;;;;;16.68;61.40;100940.66;1761103;80;21077;-73
2021/05/25 06:49:52;;;;;;;2.80;1.00;;;;;;;16.76;61.01;100942.97;1755655;80;21623;-73
2021/05/25 06:52:19;;;;;;;1.92;1.00;;;;;;;16.83;60.64;100941.39;1755238;81;21002;-71
2021/05/25 06:54:45;;;;;;;2.27;0.98;;;;;;;16.96;60.97;100950.88;1758243;80;21093;-70
2021/05/25 06:57:12;;;;;;;2.70;1.05;;;;;;;17.09;60.72;100947.38;1783061;80;22410;-73
2021/05/25 06:59:38;;;;;;;2.30;1.10;;;;;;;17.21;60.50;100939.98;1759721;80;20972;-72
2021/05/25 07:02:05;;;;;;;3.52;1.15;;;;;;;17.34;60.57;100942.61;1758359;80;21572;-72
2021/05/25 07:04:32;;;;;;;5.85;1.10;;;;;;;17.45;59.74;100941.55;1754152;80;20972;-72
2021/05/25 07:07:00;;;;;;;3.17;1.15;;;;;;;17.50;59.28;100939.77;1753444;81;20979;-71
2021/05/25 07:09:26;;;;;;;1.85;1.00;;;;;;;17.55;59.25;100947.65;1772016;80;21737;-72
2021/05/25 07:11:53;;;;;;;3.22;1.00;;;;;;;17.63;59.20;100942.88;1753410;81;21571;-72
2021/05/25 07:14:20;;;;;;;3.10;1.10;;;;;;;17.72;59.14;100939.33;1773410;80;21149;-71
2021/05/25 07:16:47;;;;;;;5.87;1.02;;;;;;;17.80;58.84;100939.39;1764082;80;21552;-71
2021/05/25 07:19:15;;;;;;;2.77;1.00;;;;;;;17.85;58.65;100929.56;1762525;80;21029;-72
2021/05/25 07:21:41;;;;;;;2.87;1.10;;;;;;;17.89;58.50;100927.78;1753709;80;21755;-79
2021/05/25 07:24:09;;;;;;;2.95;1.10;;;;;;;17.95;58.15;100926.30;1783408;80;21006;-77
2021/05/25 07:26:36;;;;;;;3.22;1.17;;;;;;;18.01;58.06;100927.02;1782666;79;21036;-78
2021/05/25 07:29:03;;;;;;;3.30;1.00;;;;;;;18.07;57.71;100921.06;1782361;80;21118;-77
2021/05/25 07:31:30;;;;;;;3.08;0.80;;;;;;;18.02;56.44;100930.03;1772586;80;20966;-77
2021/05/25 07:33:57;;;;;;;1.00;0.70;;;;;;;17.98;56.77;100926.01;1755350;80;22514;-76
2021/05/25 07:36:23;;;;;;;3.50;1.00;;;;;;;18.03;57.08;100927.70;1753423;81;21070;-77
2021/05/25 07:38:50;;;;;;;4.42;1.02;;;;;;;18.14;57.35;100926.59;1765836;79;20978;-82
2021/05/25 07:41:16;;;;;;;2.47;1.00;;;;;;;18.25;56.48;100924.52;1767167;80;21587;-70
2021/05/25 07:43:44;;;;;;;8.08;1.50;;;;;;;18.33;56.39;100915.68;1773904;80;21094;-80
2021/05/25 07:46:12;;;;;;;2.08;1.00;;;;;;;18.42;56.25;100917.91;1781377;80;21855;-81
2021/05/25 07:48:40;;;;;;;3.65;1.22;;;;;;;18.47;55.37;100920.45;1768612;80;20986;-80
2021/05/25 07:51:06;;;;;;;2.45;0.95;;;;;;;18.54;54.88;100920.66;1753746;81;21002;-78
2021/05/25 07:53:34;;;;;;;3.60;1.20;;;;;;;18.59;55.34;100912.98;1777811;80;21607;-76
2021/05/25 07:56:01;;;;;;;4.42;1.10;;;;;;;18.66;55.80;100904.69;1755496;81;21046;-75
2021/05/25 07:58:28;;;;;;;1.70;1.00;;;;;;;18.73;55.00;100907.06;1766527;81;22506;-75
2021/05/25 08:00:55;;;;;;;1.37;0.82;;;;;;;18.71;54.20;100898.84;1696367;83;21047;-74
2021/05/25 08:03:22;;;;;;;2.75;1.20;;;;;;;18.65;54.20;100897.66;1704347;83;20980;-76
2021/05/25 08:05:48;;;;;;;1.87;1.10;;;;;;;18.64;55.10;100895.95;1710757;83;21020;-72
2021/05/25 08:08:15;;;;;;;2.42;0.90;;;;;;;18.69;55.05;100901.67;1724804;82;21044;-77
2021/05/25 08:10:43;;;;;;;2.02;1.10;;;;;;;18.77;54.92;100905.72;1712847;82;21688;-77
2021/05/25 08:13:10;;;;;;;1.57;0.90;;;;;;;18.83;54.91;100906.93;1697093;83;21475;-77
2021/05/25 08:15:39;;;;;;;1.10;0.75;;;;;;;18.96;55.32;100905.12;1690318;83;21032;-75
2021/05/25 08:18:19;;;;;;;1.72;1.05;;;;;;;19.11;55.46;100899.48;1708556;83;21073;-77
2021/05/25 08:20:40;;;;;;;2.72;1.00;;;;;;;19.32;54.87;100894.98;1706891;82;21527;-79
2021/05/25 08:23:10;;;;;;;2.12;0.88;;;;;;;19.41;53.87;100893.48;1717393;83;22537;-77
2021/05/25 08:25:37;;;;;;;4.12;1.10;;;;;;;19.53;54.40;100898.01;1723945;83;21539;-83
2021/05/25 08:28:05;;;;;;;4.75;1.02;;;;;;;19.62;54.19;100898.88;1724320;83;21768;-81
2021/05/25 08:30:35;;;;;;;1.92;0.95;;;;;;;19.67;54.13;100893.84;1704335;83;21000;-78
2021/05/25 08:33:02;;;;;;;1.92;1.00;;;;;;;19.64;52.98;100898.20;1708037;83;21059;-76
2021/05/25 08:35:32;;;;;;;2.15;0.93;;;;;;;19.61;53.97;100903.91;1696962;83;21681;-76
2021/05/25 08:37:59;;;;;;;1.15;0.98;;;;;;;19.72;53.99;100899.55;1701238;83;21032;-77
2021/05/25 08:40:27;;;;;;;5.97;0.85;;;;;;;19.84;53.26;100894.17;1706284;82;21578;-77
2021/05/25 08:42:54;;;;;;;1.50;1.00;;;;;;;19.97;52.99;100897.66;1698071;83;21072;-80
2021/05/25 08:45:22;;;;;;;2.77;1.00;;;;;;;20.01;52.56;100897.67;1710762;83;20978;-77
2021/05/25 08:47:51;;;;;;;2.10;1.00;;;;;;;20.08;52.36;100895.16;1724786;83;22261;-77
2021/05/25 08:50:21;;;;;;;4.92;0.98;;;;;;;20.17;52.55;100893.63;1751798;81;21553;-78
2021/05/25 08:52:48;;;;;;;1.50;0.90;;;;;;;20.30;52.30;100892.57;1694050;83;21055;-77
2021/05/25 08:55:15;;;;;;;1.15;0.80;;;;;;;20.26;50.73;100897.92;1691659;84;21126;-76
2021/05/25 08:57:42;;;;;;;1.67;0.70;;;;;;;20.24;51.36;100895.09;1754663;80;20998;-80
2021/05/25 09:00:10;;;;;;;2.12;1.10;;;;;;;20.25;50.41;100897.59;1742428;81;21699;-77
2021/05/25 09:02:37;;;;;;;2.60;0.80;;;;;;;20.12;49.83;100893.28;1755673;80;21042;-75
2021/05/25 09:05:08;;;;;;;1.55;0.80;;;;;;;20.11;51.04;100890.78;1754081;80;21457;-80
2021/05/25 09:07:44;;;;;;;3.08;1.07;;;;;;;20.16;51.37;100887.06;1759139;80;21094;-77
2021/05/25 09:10:19;;;;;;;1.90;0.72;;;;;;;20.20;50.98;100892.44;1762822;80;21457;-76
2021/05/25 09:12:52;;;;;;;2.00;0.90;;;;;;;20.33;51.68;100896.74;1755809;80;21826;-76
2021/05/25 09:15:41;;;;;;;2.62;0.70;;;;;;;20.47;51.49;100892.05;1755252;80;21395;-76
2021/05/25 09:18:16;;;;;;;2.65;1.10;;;;;;;20.65;51.99;100888.27;1760346;80;21010;-76
2021/05/25 09:20:47;;;;;;;2.22;0.82;;;;;;;20.90;52.68;100887.64;1764347;80;20985;-76
2021/05/25 09:23:16;;;;;;;1.62;0.90;;;;;;;21.13;51.62;100888.02;1765235;80;21014;-77
2021/05/25 09:25:52;;;;;;;1.30;0.90;;;;;;;21.27;49.47;100886.94;1763494;80;21760;-76
2021/05/25 09:28:19;;;;;;;2.87;0.90;;;;;;;21.27;50.25;100890.97;1765923;80;21093;-75
2021/05/25 09:30:48;;;;;;;1.77;1.00;;;;;;;21.39;50.38;100891.70;1770317;80;21070;-75
2021/05/25 09:33:16;;;;;;;2.50;0.98;;;;;;;21.51;48.83;100888.59;1784092;80;21046;-76
2021/05/25 09:35:49;;;;;;;4.05;0.90;;;;;;;21.55;49.93;100893.45;1766724;80;21504;-76
2021/05/25 09:38:18;;;;;;;3.45;1.07;;;;;;;21.73;50.10;100877.00;1777564;80;21785;-75
2021/05/25 09:40:47;;;;;;;1.90;1.00;;;;;;;21.85;48.56;100874.69;1756809;80;21100;-75
2021/05/25 09:43:24;;;;;;;1.35;0.80;;;;;;;21.85;46.77;100884.11;1776096;80;21037;-76
2021/05/25 09:46:14;;;;;;;2.45;0.72;;;;;;;21.74;47.73;100880.01;1776713;80;21031;-75
2021/05/25 09:48:49;;;;;;;1.25;0.70;;;;;;;21.80;48.85;100883.80;1760685;80;21037;-78
2021/05/25 09:51:27;;;;;;;3.65;1.00;;;;;;;21.96;48.09;100879.62;1743742;80;21806;-77
2021/05/25 09:53:54;;;;;;;2.75;0.90;;;;;;;22.08;47.06;100869.27;1740340;80;20998;-81
2021/05/25 09:56:28;;;;;;;2.70;1.00;;;;;;;22.19;47.23;100869.63;1762079;80;21054;-75
2021/05/25 09:58:57;;;;;;;2.95;0.98;;;;;;;22.30;45.84;100860.80;1755920;80;21673;-77
2021/05/25 10:01:37;;;;;;;2.98;0.90;;;;;;;22.23;45.86;100848.08;1765534;80;20982;-76
2021/05/25 10:04:13;;;;;;;2.77;0.98;;;;;;;22.29;47.35;100853.21;1757019;80;21800;-74
2021/05/25 10:06:41;;;;;;;2.50;0.90;;;;;;;22.45;47.11;100844.94;1769943;80;21001;-76
2021/05/25 10:09:08;;;;;;;2.25;0.80;;;;;;;22.67;46.87;100844.98;1757706;80;21058;-76
2021/05/25 10:11:41;;;;;;;2.27;0.70;;;;;;;22.81;45.33;100849.52;1754682;80;21065;-76
2021/05/25 10:14:09;;;;;;;2.65;0.80;;;;;;;22.90;45.59;100848.41;1763494;80;21119;-76
2021/05/25 10:16:39;;;;;;;2.55;0.93;;;;;;;22.92;44.44;100842.31;1762606;80;21783;-76
2021/05/25 10:21:43;;;;;;;1.87;0.90;;;;;;;22.91;43.81;100845.20;1768793;80;21096;-77
2021/05/25 10:24:10;;;;;;;1.12;0.88;;;;;;;22.93;43.95;100845.84;1737105;80;21527;-76
2021/05/25 10:26:36;;;;;;;1.57;1.07;;;;;;;22.89;43.66;100843.22;1772689;80;21022;-77
2021/05/25 10:29:04;;;;;;;3.30;0.72;;;;;;;22.90;42.60;100841.68;1772340;80;22178;-77
2021/05/25 10:31:39;;;;;;;5.85;0.90;;;;;;;22.87;43.47;100832.61;1755485;80;20967;-78
2021/05/25 10:34:15;;;;;;;2.55;0.80;;;;;;;22.94;43.73;100832.17;1763356;80;21014;-77
2021/05/25 10:36:45;;;;;;;4.83;0.90;;;;;;;23.08;43.88;100821.04;1767673;80;20994;-75
2021/05/25 10:39:36;;;;;;;1.72;0.70;;;;;;;23.18;42.97;100815.33;1772822;80;22296;-75
2021/05/25 10:42:24;;;;;;;1.80;0.80;;;;;;;23.24;43.05;100817.23;1776584;80;21061;-75
2021/05/25 10:44:59;;;;;;;4.20;0.82;;;;;;;23.22;40.68;100820.13;1768999;80;21041;-80
2021/05/25 10:47:37;;;;;;;1.45;0.60;;;;;;;23.11;42.28;100817.95;1768754;79;21065;-79
2021/05/25 10:50:17;;;;;;;3.02;1.10;;;;;;;23.16;41.51;100811.45;1775958;80;21104;-79
2021/05/25 10:52:59;;;;;;;1.67;0.72;;;;;;;23.18;42.30;100809.94;1777525;80;21041;-79
2021/05/25 10:55:42;;;;;;;2.05;0.78;;;;;;;23.35;41.46;100806.75;1763293;80;21781;-79
2021/05/25 10:58:34;;;;;;;1.92;0.88;;;;;;;23.41;40.57;100810.02;1767189;80;21100;-81
2021/05/25 11:01:06;;;;;;;2.58;1.07;;;;;;;23.36;41.69;100806.27;1773026;80;20991;-79
2021/05/25 11:03:32;;;;;;;2.50;0.72;;;;;;;23.65;42.07;100801.23;1766314;80;21050;-77
2021/05/25 11:06:00;;;;;;;2.47;0.60;;;;;;;24.02;41.83;100803.20;1777204;80;20970;-78
2021/05/25 11:08:30;;;;;;;6.40;1.00;;;;;;;24.28;40.26;100796.59;1763950;80;21761;-78
2021/05/25 11:11:13;;;;;;;0.80;0.57;;;;;;;24.49;38.67;100794.31;1765002;80;21089;-77
2021/05/25 11:13:49;;;;;;;1.37;0.70;;;;;;;24.59;38.71;100792.58;1757349;80;20954;-81
2021/05/25 11:16:34;;;;;;;3.25;0.72;;;;;;;24.73;39.74;100788.38;1760090;80;21057;-78
2021/05/25 11:19:19;;;;;;;1.62;0.88;;;;;;;24.83;37.88;100782.05;1781553;80;20998;-78
2021/05/25 11:24:44;;;;;;;1.62;0.75;;;;;;;24.87;39.18;100774.88;1753988;80;21547;-80
2021/05/25 11:27:16;;;;;;;1.80;0.70;;;;;;;25.06;36.54;100783.04;1741697;80;20982;-79
2021/05/25 11:29:53;;;;;;;1.12;0.70;;;;;;;24.83;35.55;100789.33;1745452;81;21088;-80
2021/05/25 11:32:30;;;;;;;4.40;0.70;;;;;;;24.51;36.29;100774.68;1768901;80;20975;-81
2021/05/25 11:34:59;;;;;;;1.35;0.53;;;;;;;24.40;38.15;100770.70;1782451;80;22326;-82
2021/05/25 11:37:26;;;;;;;1.40;0.70;;;;;;;24.53;37.77;100776.17;1782419;79;21034;-81
2021/05/25 11:39:56;;;;;;;2.98;0.70;;;;;;;24.82;39.35;100766.88;1779144;80;21038;-80
2021/05/25 11:42:27;;;;;;;0.93;0.60;;;;;;;25.13;38.20;100764.66;1763671;80;20985;-85
2021/05/25 11:44:55;;;;;;;2.08;0.60;;;;;;;25.33;37.07;100761.42;1769018;80;21102;-81